SWA1784 KMDW-TJSJ
Flight info
| Callsign | SWA1784 |
|---|---|
| Flight time | N/A |
| Altitude | 33000 |
| Route | EARND DCT ELANR DCT EMMLY DCT ETAME DCT EMEGE DCT FLM DCT TAFTT DCT JOTTA DCT LILLS DCT OGGRE/N0452F340 DCT OZENA/N0452F350 DCT NUCAR Y355 RENAH Y185 COUKY DCT FIPEK Y355 PLING RTE7 SAALR |
| Aircraft | B738/M-SDE2E3FGHIRWXY/LB1 |
Departure
| Time | N/A |
|---|---|
| Airport | Chicago Midway International Airport (KMDW) |
Arrival
| Time | 2026-05-07 04:41 |
|---|---|
| Airport | Luis Munoz Marin International Airport (TJSJ) |
| Time | Latitude | Longitude | Altitude | Speed | Heading |
|---|---|---|---|---|---|
| 2026-05-07 02:53 | 27.78690 | -77.22736 | 33091 ft | 530 kts | 133° |
| 2026-05-07 02:53 | 27.76122 | -77.19679 | 33086 ft | 531 kts | 133° |
| 2026-05-07 02:53 | 27.71056 | -77.13659 | 33090 ft | 531 kts | 133° |
| 2026-05-07 02:54 | 27.65940 | -77.07586 | 33089 ft | 530 kts | 133° |
| 2026-05-07 02:54 | 27.60850 | -77.01547 | 33089 ft | 531 kts | 133° |
| 2026-05-07 02:55 | 27.55760 | -76.95516 | 33092 ft | 529 kts | 133° |
| 2026-05-07 02:55 | 27.50681 | -76.89507 | 33089 ft | 529 kts | 133° |
| 2026-05-07 02:56 | 27.45575 | -76.83476 | 33091 ft | 529 kts | 133° |
| 2026-05-07 02:56 | 27.40502 | -76.77493 | 33091 ft | 530 kts | 133° |
| 2026-05-07 02:57 | 27.35401 | -76.71483 | 33094 ft | 528 kts | 133° |
| 2026-05-07 02:57 | 27.30338 | -76.65531 | 33093 ft | 528 kts | 133° |
| 2026-05-07 02:58 | 27.25264 | -76.59572 | 33092 ft | 528 kts | 133° |
| 2026-05-07 02:58 | 27.20194 | -76.53623 | 33094 ft | 528 kts | 133° |
| 2026-05-07 02:59 | 27.15086 | -76.47640 | 33092 ft | 528 kts | 133° |
| 2026-05-07 02:59 | 27.10022 | -76.41720 | 33095 ft | 528 kts | 132° |
| 2026-05-07 03:00 | 27.04919 | -76.35761 | 33093 ft | 527 kts | 132° |
| 2026-05-07 03:00 | 26.99827 | -76.29822 | 33092 ft | 527 kts | 133° |
| 2026-05-07 03:01 | 26.94742 | -76.23899 | 33092 ft | 528 kts | 133° |
| 2026-05-07 03:01 | 26.89620 | -76.17943 | 33090 ft | 528 kts | 132° |
| 2026-05-07 03:02 | 26.84542 | -76.12044 | 33091 ft | 528 kts | 133° |
| 2026-05-07 03:02 | 26.79444 | -76.06130 | 33089 ft | 526 kts | 132° |
| 2026-05-07 03:03 | 26.74362 | -76.00244 | 33094 ft | 527 kts | 133° |
| 2026-05-07 03:03 | 26.69266 | -75.94353 | 33090 ft | 526 kts | 133° |
| 2026-05-07 03:04 | 26.64185 | -75.88484 | 33092 ft | 526 kts | 133° |
| 2026-05-07 03:04 | 26.59112 | -75.82632 | 33094 ft | 526 kts | 133° |
| 2026-05-07 03:05 | 26.54020 | -75.76769 | 33095 ft | 526 kts | 132° |
| 2026-05-07 03:05 | 26.48914 | -75.70895 | 33097 ft | 526 kts | 132° |
| 2026-05-07 03:06 | 26.43832 | -75.65057 | 33099 ft | 526 kts | 132° |
| 2026-05-07 03:06 | 26.38727 | -75.59200 | 33095 ft | 526 kts | 132° |
| 2026-05-07 03:07 | 26.33628 | -75.53359 | 33094 ft | 525 kts | 132° |
| 2026-05-07 03:07 | 26.28555 | -75.47555 | 33091 ft | 525 kts | 132° |
| 2026-05-07 03:08 | 26.23440 | -75.41710 | 33091 ft | 526 kts | 132° |
| 2026-05-07 03:08 | 26.18361 | -75.35915 | 33091 ft | 524 kts | 132° |
| 2026-05-07 03:09 | 26.13244 | -75.30082 | 33091 ft | 525 kts | 132° |
| 2026-05-07 03:09 | 26.08169 | -75.24307 | 33091 ft | 525 kts | 132° |
| 2026-05-07 03:10 | 26.03023 | -75.18459 | 33091 ft | 526 kts | 132° |
| 2026-05-07 03:10 | 25.97952 | -75.12705 | 33091 ft | 523 kts | 132° |
| 2026-05-07 03:11 | 25.92838 | -75.06910 | 33090 ft | 524 kts | 132° |
| 2026-05-07 03:11 | 25.87754 | -75.01157 | 33090 ft | 522 kts | 132° |
| 2026-05-07 03:12 | 25.82639 | -74.95376 | 33089 ft | 524 kts | 132° |
| 2026-05-07 03:12 | 25.77533 | -74.89612 | 33089 ft | 522 kts | 132° |
| 2026-05-07 03:13 | 25.72440 | -74.83870 | 33090 ft | 523 kts | 132° |
| 2026-05-07 03:13 | 25.67356 | -74.78143 | 33089 ft | 523 kts | 132° |
| 2026-05-07 03:14 | 25.62272 | -74.72424 | 33090 ft | 522 kts | 132° |
| 2026-05-07 03:15 | 25.54654 | -74.63872 | 33090 ft | 520 kts | 132° |
| 2026-05-07 03:15 | 25.49554 | -74.58154 | 33090 ft | 520 kts | 131° |
| 2026-05-07 03:16 | 25.44487 | -74.52481 | 33090 ft | 520 kts | 132° |
| 2026-05-07 03:16 | 25.39417 | -74.46814 | 33091 ft | 520 kts | 131° |
| 2026-05-07 03:17 | 25.34330 | -74.41133 | 33090 ft | 520 kts | 132° |
| 2026-05-07 03:17 | 25.29222 | -74.35436 | 33092 ft | 521 kts | 132° |
| 2026-05-07 03:18 | 25.24141 | -74.29775 | 33092 ft | 521 kts | 132° |
| 2026-05-07 03:18 | 25.19048 | -74.24111 | 33090 ft | 518 kts | 132° |
| 2026-05-07 03:19 | 25.13975 | -74.18474 | 33092 ft | 519 kts | 132° |
| 2026-05-07 03:19 | 25.08894 | -74.12834 | 33093 ft | 519 kts | 132° |
| 2026-05-07 03:20 | 25.03805 | -74.07195 | 33090 ft | 518 kts | 132° |
| 2026-05-07 03:20 | 24.98734 | -74.01584 | 33091 ft | 518 kts | 131° |
| 2026-05-07 03:21 | 24.93621 | -73.95931 | 33091 ft | 519 kts | 132° |
| 2026-05-07 03:21 | 24.88554 | -73.90336 | 33091 ft | 520 kts | 132° |
| 2026-05-07 03:22 | 24.83446 | -73.84703 | 33091 ft | 519 kts | 132° |
| 2026-05-07 03:22 | 24.78317 | -73.79057 | 33091 ft | 518 kts | 132° |
| 2026-05-07 03:23 | 24.73228 | -73.73458 | 33091 ft | 519 kts | 131° |
| 2026-05-07 03:23 | 24.68127 | -73.67853 | 33091 ft | 518 kts | 131° |
| 2026-05-07 03:24 | 24.63031 | -73.62261 | 33091 ft | 518 kts | 131° |
| 2026-05-07 03:24 | 24.57954 | -73.56636 | 33091 ft | 517 kts | 129° |
| 2026-05-07 03:25 | 24.53368 | -73.50646 | 33091 ft | 515 kts | 123° |
| 2026-05-07 03:25 | 24.49121 | -73.44331 | 33091 ft | 513 kts | 121° |
| 2026-05-07 03:26 | 24.44972 | -73.37955 | 33091 ft | 512 kts | 121° |
| 2026-05-07 03:26 | 24.40814 | -73.31613 | 33091 ft | 513 kts | 121° |
| 2026-05-07 03:27 | 24.36628 | -73.25306 | 33091 ft | 512 kts | 122° |
| 2026-05-07 03:27 | 24.32432 | -73.19034 | 33091 ft | 512 kts | 122° |
| 2026-05-07 03:28 | 24.28227 | -73.12773 | 33091 ft | 512 kts | 122° |
| 2026-05-07 03:28 | 24.23999 | -73.06485 | 33091 ft | 513 kts | 122° |
| 2026-05-07 03:29 | 24.19783 | -73.00226 | 33092 ft | 513 kts | 121° |
| 2026-05-07 03:29 | 24.15534 | -72.93924 | 33091 ft | 510 kts | 121° |
| 2026-05-07 03:30 | 24.11339 | -72.87711 | 33094 ft | 511 kts | 121° |
| 2026-05-07 03:30 | 24.07123 | -72.81470 | 33094 ft | 512 kts | 121° |
| 2026-05-07 03:31 | 24.02872 | -72.75182 | 33096 ft | 512 kts | 121° |
| 2026-05-07 03:31 | 23.98646 | -72.68941 | 33098 ft | 511 kts | 121° |
| 2026-05-07 03:32 | 23.94447 | -72.62749 | 33097 ft | 511 kts | 121° |
| 2026-05-07 03:32 | 23.90204 | -72.56499 | 33099 ft | 512 kts | 121° |
| 2026-05-07 03:33 | 23.85936 | -72.50227 | 33099 ft | 511 kts | 121° |
| 2026-05-07 03:33 | 23.81716 | -72.44027 | 33099 ft | 510 kts | 121° |
| 2026-05-07 03:34 | 23.77479 | -72.37810 | 33100 ft | 510 kts | 121° |
| 2026-05-07 03:34 | 23.73251 | -72.31611 | 33102 ft | 512 kts | 121° |
| 2026-05-07 03:35 | 23.69011 | -72.25409 | 33103 ft | 510 kts | 121° |
| 2026-05-07 03:35 | 23.64774 | -72.19217 | 33102 ft | 510 kts | 122° |
| 2026-05-07 03:36 | 23.60527 | -72.13017 | 33104 ft | 510 kts | 121° |
| 2026-05-07 03:36 | 23.56271 | -72.06808 | 33103 ft | 511 kts | 122° |
| 2026-05-07 03:37 | 23.52042 | -72.00651 | 33104 ft | 510 kts | 121° |
| 2026-05-07 03:37 | 23.47772 | -71.94440 | 33101 ft | 511 kts | 121° |
| 2026-05-07 03:38 | 23.43546 | -71.88300 | 33101 ft | 509 kts | 121° |
| 2026-05-07 03:38 | 23.39313 | -71.82162 | 33098 ft | 507 kts | 121° |
| 2026-05-07 03:39 | 23.35081 | -71.76013 | 33099 ft | 508 kts | 121° |
| 2026-05-07 03:39 | 23.30998 | -71.69744 | 33098 ft | 505 kts | 118° |
| 2026-05-07 03:40 | 23.27021 | -71.63406 | 33093 ft | 506 kts | 118° |
| 2026-05-07 03:40 | 23.23079 | -71.57126 | 33092 ft | 506 kts | 119° |
| 2026-05-07 03:41 | 23.19095 | -71.50835 | 33092 ft | 503 kts | 119° |
| 2026-05-07 03:41 | 23.15093 | -71.44556 | 33092 ft | 506 kts | 119° |
| 2026-05-07 03:42 | 23.11078 | -71.38283 | 33095 ft | 508 kts | 119° |
| 2026-05-07 03:42 | 23.07059 | -71.32014 | 33091 ft | 506 kts | 119° |
| 2026-05-07 03:43 | 23.03039 | -71.25753 | 33090 ft | 507 kts | 120° |
| 2026-05-07 03:43 | 22.99012 | -71.19492 | 33091 ft | 505 kts | 120° |
| 2026-05-07 03:44 | 22.94997 | -71.13251 | 33091 ft | 505 kts | 119° |
| 2026-05-07 03:44 | 22.90988 | -71.07022 | 33091 ft | 507 kts | 119° |
| 2026-05-07 03:45 | 22.86954 | -71.00769 | 33091 ft | 506 kts | 119° |
| 2026-05-07 03:45 | 22.82920 | -70.94518 | 33093 ft | 507 kts | 120° |
| 2026-05-07 03:46 | 22.78892 | -70.88290 | 33094 ft | 506 kts | 120° |
| 2026-05-07 03:46 | 22.74838 | -70.82026 | 33092 ft | 506 kts | 119° |
| 2026-05-07 03:47 | 22.70802 | -70.75796 | 33094 ft | 505 kts | 119° |
| 2026-05-07 03:47 | 22.66776 | -70.69592 | 33092 ft | 506 kts | 119° |
| 2026-05-07 03:48 | 22.62728 | -70.63363 | 33090 ft | 504 kts | 120° |
| 2026-05-07 03:48 | 22.58684 | -70.57149 | 33093 ft | 505 kts | 120° |
| 2026-05-07 03:49 | 22.54656 | -70.50965 | 33092 ft | 504 kts | 120° |
| 2026-05-07 03:49 | 22.50620 | -70.44769 | 33087 ft | 506 kts | 120° |
| 2026-05-07 03:50 | 22.46556 | -70.38545 | 33089 ft | 505 kts | 120° |
| 2026-05-07 03:50 | 22.42467 | -70.32286 | 33091 ft | 506 kts | 120° |
| 2026-05-07 03:51 | 22.38392 | -70.26059 | 33086 ft | 505 kts | 120° |
| 2026-05-07 03:51 | 22.34344 | -70.19878 | 33079 ft | 505 kts | 120° |
| 2026-05-07 03:52 | 22.30272 | -70.13666 | 33078 ft | 506 kts | 120° |
| 2026-05-07 03:52 | 22.26203 | -70.07465 | 33076 ft | 508 kts | 120° |
| 2026-05-07 03:53 | 22.22101 | -70.01225 | 33079 ft | 506 kts | 120° |
| 2026-05-07 03:53 | 22.18021 | -69.95029 | 33074 ft | 506 kts | 120° |
| 2026-05-07 03:54 | 22.13941 | -69.88838 | 33075 ft | 505 kts | 120° |
| 2026-05-07 03:54 | 22.09878 | -69.82679 | 33074 ft | 506 kts | 120° |
| 2026-05-07 03:55 | 22.05769 | -69.76457 | 33076 ft | 504 kts | 120° |
| 2026-05-07 03:55 | 22.01707 | -69.70309 | 33075 ft | 503 kts | 120° |
| 2026-05-07 03:56 | 21.97629 | -69.64146 | 33075 ft | 504 kts | 120° |
| 2026-05-07 03:56 | 21.93567 | -69.58019 | 33075 ft | 502 kts | 120° |
| 2026-05-07 03:57 | 21.89502 | -69.51889 | 33076 ft | 504 kts | 120° |
| 2026-05-07 03:57 | 21.85436 | -69.45767 | 33084 ft | 503 kts | 120° |
| 2026-05-07 03:58 | 21.81341 | -69.39606 | 33078 ft | 503 kts | 120° |
| 2026-05-07 03:58 | 21.77264 | -69.33480 | 33080 ft | 502 kts | 121° |
| 2026-05-07 03:59 | 21.73197 | -69.27377 | 33075 ft | 503 kts | 121° |
| 2026-05-07 03:59 | 21.69091 | -69.21225 | 33071 ft | 501 kts | 121° |
| 2026-05-07 04:00 | 21.65017 | -69.15128 | 33069 ft | 501 kts | 121° |
| 2026-05-07 04:00 | 21.60947 | -69.09038 | 33069 ft | 504 kts | 121° |
| 2026-05-07 04:01 | 21.56848 | -69.02916 | 33071 ft | 502 kts | 121° |
| 2026-05-07 04:01 | 21.52772 | -68.96831 | 33068 ft | 503 kts | 121° |
| 2026-05-07 04:02 | 21.48692 | -68.90748 | 33073 ft | 502 kts | 121° |
| 2026-05-07 04:02 | 21.44571 | -68.84610 | 33074 ft | 503 kts | 121° |
| 2026-05-07 04:03 | 21.40467 | -68.78509 | 33073 ft | 502 kts | 121° |
| 2026-05-07 04:03 | 21.36381 | -68.72440 | 33075 ft | 503 kts | 121° |
| 2026-05-07 04:04 | 21.32297 | -68.66379 | 33074 ft | 500 kts | 121° |
| 2026-05-07 04:04 | 21.28179 | -68.60276 | 33075 ft | 501 kts | 121° |
| 2026-05-07 04:05 | 21.24101 | -68.54234 | 33076 ft | 503 kts | 122° |
| 2026-05-07 04:05 | 21.19983 | -68.48141 | 33076 ft | 501 kts | 122° |
| 2026-05-07 04:06 | 21.15925 | -68.42142 | 33074 ft | 500 kts | 122° |
| 2026-05-07 04:06 | 21.11821 | -68.36086 | 33073 ft | 500 kts | 122° |
| 2026-05-07 04:07 | 21.07762 | -68.30100 | 33075 ft | 502 kts | 122° |
| 2026-05-07 04:07 | 21.03673 | -68.24075 | 33074 ft | 501 kts | 123° |
| 2026-05-07 04:08 | 20.99577 | -68.18047 | 33068 ft | 500 kts | 122° |
| 2026-05-07 04:08 | 20.95443 | -68.11972 | 33071 ft | 501 kts | 123° |
| 2026-05-07 04:09 | 20.91325 | -68.05927 | 33071 ft | 499 kts | 123° |
| 2026-05-07 04:09 | 20.87225 | -67.99916 | 33072 ft | 498 kts | 123° |
| 2026-05-07 04:10 | 20.83095 | -67.93977 | 33072 ft | 499 kts | 124° |
| 2026-05-07 04:10 | 20.78826 | -67.88115 | 33068 ft | 501 kts | 125° |
| 2026-05-07 04:11 | 20.74541 | -67.82295 | 33070 ft | 500 kts | 126° |
| 2026-05-07 04:11 | 20.70264 | -67.76473 | 33070 ft | 501 kts | 126° |
| 2026-05-07 04:12 | 20.65959 | -67.70596 | 33069 ft | 499 kts | 126° |
| 2026-05-07 04:12 | 20.61685 | -67.64750 | 33069 ft | 500 kts | 126° |
| 2026-05-07 04:13 | 20.57406 | -67.58899 | 33068 ft | 499 kts | 126° |
| 2026-05-07 04:13 | 20.53153 | -67.53086 | 33070 ft | 499 kts | 126° |
| 2026-05-07 04:14 | 20.48876 | -67.47244 | 33068 ft | 500 kts | 126° |
| 2026-05-07 04:14 | 20.44611 | -67.41425 | 33069 ft | 500 kts | 126° |
| 2026-05-07 04:15 | 20.40334 | -67.35596 | 33070 ft | 499 kts | 126° |
| 2026-05-07 04:15 | 20.36059 | -67.29777 | 33070 ft | 499 kts | 126° |
| 2026-05-07 04:16 | 20.31785 | -67.23962 | 33070 ft | 498 kts | 126° |
| 2026-05-07 04:16 | 20.27506 | -67.18148 | 33069 ft | 501 kts | 126° |
| 2026-05-07 04:17 | 20.23220 | -67.12331 | 33072 ft | 500 kts | 126° |
| 2026-05-07 04:17 | 20.18914 | -67.06493 | 33070 ft | 500 kts | 126° |
| 2026-05-07 04:18 | 20.14645 | -67.00709 | 33071 ft | 498 kts | 126° |
| 2026-05-07 04:18 | 20.10363 | -66.94914 | 33070 ft | 498 kts | 126° |
| 2026-05-07 04:19 | 20.06083 | -66.89127 | 32863 ft | 501 kts | 126° |
| 2026-05-07 04:19 | 20.03932 | -66.86221 | 32496 ft | 502 kts | 126° |
| 2026-05-07 04:19 | 20.01723 | -66.83324 | 31983 ft | 502 kts | 128° |
| 2026-05-07 04:19 | 19.99378 | -66.80646 | 31444 ft | 498 kts | 136° |
| 2026-05-07 04:20 | 19.96645 | -66.78402 | 30891 ft | 495 kts | 146° |
| 2026-05-07 04:20 | 19.93692 | -66.76557 | 30335 ft | 491 kts | 151° |
| 2026-05-07 04:20 | 19.90662 | -66.74898 | 29778 ft | 487 kts | 153° |
| 2026-05-07 04:21 | 19.84596 | -66.71815 | 28667 ft | 479 kts | 154° |
| 2026-05-07 04:21 | 19.81558 | -66.70292 | 28109 ft | 475 kts | 154° |
| 2026-05-07 04:21 | 19.78611 | -66.68805 | 27564 ft | 471 kts | 154° |
| 2026-05-07 04:21 | 19.75653 | -66.67297 | 27017 ft | 467 kts | 154° |
| 2026-05-07 04:22 | 19.72720 | -66.65789 | 26473 ft | 463 kts | 154° |
| 2026-05-07 04:22 | 19.69806 | -66.64280 | 25929 ft | 458 kts | 154° |
| 2026-05-07 04:22 | 19.66956 | -66.62795 | 25395 ft | 454 kts | 154° |
| 2026-05-07 04:22 | 19.64136 | -66.61321 | 24865 ft | 450 kts | 154° |
| 2026-05-07 04:23 | 19.61341 | -66.59856 | 24339 ft | 446 kts | 154° |
| 2026-05-07 04:23 | 19.58577 | -66.58406 | 23817 ft | 442 kts | 154° |
| 2026-05-07 04:23 | 19.55825 | -66.56961 | 23296 ft | 437 kts | 154° |
| 2026-05-07 04:23 | 19.53101 | -66.55530 | 22779 ft | 433 kts | 154° |
| 2026-05-07 04:24 | 19.50416 | -66.54119 | 22270 ft | 429 kts | 154° |
| 2026-05-07 04:24 | 19.47748 | -66.52718 | 21766 ft | 425 kts | 154° |
| 2026-05-07 04:24 | 19.45098 | -66.51326 | 21262 ft | 421 kts | 154° |
| 2026-05-07 04:24 | 19.42516 | -66.49970 | 20769 ft | 417 kts | 154° |
| 2026-05-07 04:25 | 19.39914 | -66.48606 | 20267 ft | 413 kts | 154° |
| 2026-05-07 04:25 | 19.37318 | -66.47245 | 19770 ft | 409 kts | 154° |
| 2026-05-07 04:25 | 19.34757 | -66.45903 | 19276 ft | 405 kts | 154° |
| 2026-05-07 04:25 | 19.32257 | -66.44593 | 18795 ft | 401 kts | 154° |
| 2026-05-07 04:26 | 19.29744 | -66.43276 | 18307 ft | 398 kts | 154° |
| 2026-05-07 04:26 | 19.27277 | -66.41983 | 17821 ft | 394 kts | 154° |
| 2026-05-07 04:26 | 19.24809 | -66.40690 | 17241 ft | 393 kts | 154° |
| 2026-05-07 04:26 | 19.22341 | -66.39397 | 16734 ft | 389 kts | 154° |
| 2026-05-07 04:27 | 19.19902 | -66.38121 | 16256 ft | 385 kts | 154° |
| 2026-05-07 04:27 | 19.17502 | -66.36866 | 15785 ft | 381 kts | 154° |
| 2026-05-07 04:27 | 19.15124 | -66.35623 | 15325 ft | 377 kts | 154° |
| 2026-05-07 04:27 | 19.12789 | -66.34441 | 14867 ft | 371 kts | 156° |
| 2026-05-07 04:28 | 19.10385 | -66.33433 | 14427 ft | 362 kts | 162° |
| 2026-05-07 04:28 | 19.07982 | -66.32742 | 14068 ft | 352 kts | 168° |
| 2026-05-07 04:28 | 19.05569 | -66.32221 | 13598 ft | 346 kts | 170° |
| 2026-05-07 04:28 | 19.03204 | -66.31766 | 13109 ft | 341 kts | 170° |
| 2026-05-07 04:29 | 19.00891 | -66.31321 | 12680 ft | 335 kts | 169° |
| 2026-05-07 04:29 | 18.98603 | -66.30863 | 12260 ft | 329 kts | 169° |
| 2026-05-07 04:29 | 18.96379 | -66.30403 | 11849 ft | 324 kts | 169° |
| 2026-05-07 04:29 | 18.94170 | -66.29936 | 11443 ft | 316 kts | 168° |
| 2026-05-07 04:30 | 18.92033 | -66.29479 | 11048 ft | 309 kts | 168° |
| 2026-05-07 04:30 | 18.89902 | -66.29021 | 10653 ft | 303 kts | 168° |
| 2026-05-07 04:30 | 18.87862 | -66.28580 | 10271 ft | 297 kts | 168° |
| 2026-05-07 04:30 | 18.85809 | -66.28139 | 9924 ft | 293 kts | 168° |
| 2026-05-07 04:31 | 18.83850 | -66.27718 | 9774 ft | 284 kts | 168° |
| 2026-05-07 04:31 | 18.81883 | -66.27295 | 9413 ft | 283 kts | 168° |
| 2026-05-07 04:31 | 18.79950 | -66.26881 | 9036 ft | 283 kts | 168° |
| 2026-05-07 04:31 | 18.78012 | -66.26466 | 8688 ft | 282 kts | 168° |
| 2026-05-07 04:32 | 18.76084 | -66.26053 | 8340 ft | 281 kts | 167° |
| 2026-05-07 04:32 | 18.74153 | -66.25639 | 7998 ft | 280 kts | 167° |
| 2026-05-07 04:32 | 18.72237 | -66.25230 | 7648 ft | 279 kts | 167° |
| 2026-05-07 04:32 | 18.70330 | -66.24821 | 7302 ft | 278 kts | 167° |
| 2026-05-07 04:33 | 18.68438 | -66.24413 | 6962 ft | 276 kts | 167° |
| 2026-05-07 04:33 | 18.66533 | -66.24006 | 6618 ft | 275 kts | 167° |
| 2026-05-07 04:33 | 18.64664 | -66.23606 | 6282 ft | 273 kts | 167° |
| 2026-05-07 04:33 | 18.62779 | -66.23202 | 5938 ft | 272 kts | 167° |
| 2026-05-07 04:34 | 18.60938 | -66.22807 | 5595 ft | 267 kts | 166° |
| 2026-05-07 04:34 | 18.59136 | -66.22424 | 5272 ft | 261 kts | 166° |
| 2026-05-07 04:34 | 18.57352 | -66.22042 | 4950 ft | 254 kts | 166° |
| 2026-05-07 04:34 | 18.55660 | -66.21680 | 4646 ft | 245 kts | 166° |
| 2026-05-07 04:35 | 18.54014 | -66.21328 | 4331 ft | 235 kts | 166° |
| 2026-05-07 04:35 | 18.52436 | -66.20991 | 4070 ft | 224 kts | 166° |
| 2026-05-07 04:35 | 18.50950 | -66.20676 | 3968 ft | 208 kts | 165° |
| 2026-05-07 04:35 | 18.49588 | -66.20390 | 3914 ft | 191 kts | 165° |
| 2026-05-07 04:36 | 18.48327 | -66.20119 | 3864 ft | 178 kts | 165° |
| 2026-05-07 04:36 | 18.47089 | -66.19862 | 3803 ft | 182 kts | 168° |
| 2026-05-07 04:36 | 18.45810 | -66.19790 | 3614 ft | 184 kts | 174° |
| 2026-05-07 04:36 | 18.44609 | -66.19493 | 3445 ft | 174 kts | 145° |
| 2026-05-07 04:37 | 18.43746 | -66.18605 | 3291 ft | 174 kts | 122° |
| 2026-05-07 04:37 | 18.43188 | -66.17481 | 2987 ft | 175 kts | 107° |
| 2026-05-07 04:37 | 18.43019 | -66.16222 | 2716 ft | 173 kts | 87° |
| 2026-05-07 04:37 | 18.43118 | -66.14969 | 2478 ft | 171 kts | 86° |
| 2026-05-07 04:38 | 18.43202 | -66.13721 | 2265 ft | 168 kts | 85° |
| 2026-05-07 04:38 | 18.43292 | -66.12530 | 2068 ft | 161 kts | 87° |
| 2026-05-07 04:38 | 18.43328 | -66.11391 | 1829 ft | 151 kts | 89° |
| 2026-05-07 04:38 | 18.43343 | -66.10310 | 1645 ft | 144 kts | 89° |
| 2026-05-07 04:39 | 18.43352 | -66.09265 | 1469 ft | 141 kts | 90° |
| 2026-05-07 04:39 | 18.43358 | -66.08266 | 1269 ft | 134 kts | 90° |
| 2026-05-07 04:39 | 18.43357 | -66.07275 | 1101 ft | 134 kts | 90° |
| 2026-05-07 04:39 | 18.43359 | -66.06287 | 924 ft | 135 kts | 90° |
| 2026-05-07 04:40 | 18.43357 | -66.05290 | 754 ft | 135 kts | 90° |
| 2026-05-07 04:40 | 18.43356 | -66.04301 | 571 ft | 136 kts | 90° |
| 2026-05-07 04:40 | 18.43356 | -66.03294 | 394 ft | 137 kts | 90° |
| 2026-05-07 04:40 | 18.43353 | -66.02282 | 214 ft | 137 kts | 90° |
| 2026-05-07 04:41 | 18.43357 | -66.01278 | 44 ft | 137 kts | 90° |
| 2026-05-07 04:41 | 18.43353 | -66.00365 | 17 ft | 98 kts | 89° |
| 2026-05-07 04:41 | 18.43353 | -65.99870 | 16 ft | 47 kts | 90° |
| 2026-05-07 04:41 | 18.43360 | -65.99626 | 16 ft | 22 kts | 77° |
| 2026-05-07 04:42 | 18.43440 | -65.99554 | 16 ft | 14 kts | 340° |
| 2026-05-07 04:42 | 18.43463 | -65.99647 | 16 ft | 13 kts | 270° |
| 2026-05-07 04:42 | 18.43464 | -65.99738 | 16 ft | 12 kts | 270° |
| 2026-05-07 04:42 | 18.43464 | -65.99822 | 16 ft | 10 kts | 270° |
| 2026-05-07 04:43 | 18.43472 | -65.99896 | 16 ft | 9 kts | 301° |
| 2026-05-07 04:43 | 18.43530 | -65.99916 | 16 ft | 8 kts | 349° |
| 2026-05-07 04:43 | 18.43567 | -65.99953 | 16 ft | 7 kts | 301° |
| 2026-05-07 04:43 | 18.43583 | -65.99972 | 18 ft | 0 kts | 323° |
| 2026-05-07 04:44 | 18.43616 | -65.99985 | 21 ft | 10 kts | 357° |
| 2026-05-07 04:44 | 18.43695 | -65.99985 | 19 ft | 11 kts | 341° |
| 2026-05-07 04:44 | 18.43774 | -66.00020 | 24 ft | 14 kts | 332° |
| 2026-05-07 04:44 | 18.43778 | -66.00107 | 25 ft | 12 kts | 253° |
| 2026-05-07 04:45 | 18.43746 | -66.00176 | 24 ft | 5 kts | 197° |
| 2026-05-07 04:45 | 18.43725 | -66.00177 | 24 ft | 0 kts | 181° |
| 2026-05-07 04:45 | 18.43710 | -66.00177 | 23 ft | 2 kts | 180° |
| 2026-05-07 04:45 | 18.43707 | -66.00177 | 23 ft | 0 kts | 180° |
| 2026-05-07 04:47 | 18.43706 | -66.00177 | 23 ft | 0 kts | 180° |